Time;durP1;ratioP1;P1;durP2;ratioP2;P2;SDS_P1;SDS_P2;PMS_P1;PMS_P2;Temp;Humidity;BMP_temperature;BMP_pressure;BME280_temperature;BME280_humidity;BME280_pressure;Samples;Min_cycle;Max_cycle;Signal;HPM_P1;HPM_P2
2022/12/23 00:02:15;;;;;;;44.37;16.17;;;;;;;8.63;100.00;100244.44;6183425;23;20001;-88
2022/12/23 00:04:40;;;;;;;56.50;16.10;;;;;;;8.63;100.00;100247.09;6182876;23;20012;-89
2022/12/23 00:07:05;;;;;;;50.63;17.40;;;;;;;8.53;100.00;100228.38;6183367;23;20012;-88
2022/12/23 00:09:31;;;;;;;49.90;17.10;;;;;;;8.63;100.00;100243.63;6182117;23;20381;-88
2022/12/23 00:17:24;;;;;;;49.63;18.60;;;;;;;8.60;100.00;100246.81;6182912;23;20440;-88
2022/12/23 00:19:49;;;;;;;53.13;18.30;;;;;;;8.64;100.00;100255.94;6181850;23;20033;-88
2022/12/23 00:22:14;;;;;;;51.88;19.17;;;;;;;8.65;100.00;100265.56;6182974;23;20085;-89
2022/12/23 00:24:40;;;;;;;61.67;20.23;;;;;;;8.58;100.00;100255.06;6182047;23;20080;-89
2022/12/23 00:27:05;;;;;;;59.40;21.40;;;;;;;8.66;100.00;100267.16;6156416;23;20453;-89
2022/12/23 00:29:30;;;;;;;68.30;22.27;;;;;;;8.67;100.00;100276.78;6183403;23;20001;-89
2022/12/23 00:31:58;;;;;;;70.53;23.87;;;;;;;8.64;100.00;100262.06;6182424;23;20016;-89
2022/12/23 00:34:24;;;;;;;69.18;22.67;;;;;;;8.65;100.00;100268.22;6183214;23;20061;-88
2022/12/23 00:36:55;;;;;;;63.30;22.20;;;;;;;8.59;100.00;100259.34;6182416;23;20016;-89
2022/12/23 00:44:51;;;;;;;67.55;24.10;;;;;;;8.66;100.00;100279.69;6182449;23;20024;-88
2022/12/23 00:50:00;;;;;;;79.23;25.07;;;;;;;8.60;100.00;100274.31;6181690;23;20066;-89
2022/12/23 00:52:26;;;;;;;71.07;23.97;;;;;;;8.67;100.00;100276.78;6182844;23;20315;-89
2022/12/23 00:54:51;;;;;;;77.10;23.43;;;;;;;8.66;100.00;100291.22;6182321;23;20095;-89
2022/12/23 00:57:16;;;;;;;72.63;23.63;;;;;;;8.66;100.00;100301.06;6182783;23;20012;-89
2022/12/23 00:59:42;;;;;;;70.60;23.20;;;;;;;8.69;100.00;100297.88;6181780;23;20005;-89
2022/12/23 01:07:38;;;;;;;78.75;23.27;;;;;;;8.62;100.00;100304.25;6182314;23;20360;-89
2022/12/23 01:10:04;;;;;;;73.83;23.50;;;;;;;8.66;100.00;100311.75;6181330;23;20005;-89
2022/12/23 01:12:29;;;;;;;79.22;24.40;;;;;;;8.59;100.00;100299.41;6181755;23;20087;-89
2022/12/23 01:14:54;;;;;;;85.17;23.17;;;;;;;8.61;100.00;100309.84;6182573;23;20020;-89
2022/12/23 01:17:20;;;;;;;80.80;23.40;;;;;;;8.62;100.00;100312.25;6182647;23;20089;-89
2022/12/23 01:19:45;;;;;;;76.60;23.73;;;;;;;8.66;100.00;100317.09;6181513;23;20431;-89
2022/12/23 01:22:10;;;;;;;82.28;23.90;;;;;;;8.63;100.00;100318.44;6182301;23;20317;-89
2022/12/23 01:24:36;;;;;;;72.40;23.03;;;;;;;8.61;100.00;100312.53;6182240;23;20079;-89
2022/12/23 01:27:01;;;;;;;72.07;22.63;;;;;;;8.64;100.00;100315.47;6182516;23;20009;-88
2022/12/23 01:29:27;;;;;;;75.00;23.07;;;;;;;8.63;100.00;100311.19;6182503;23;20033;-90
2022/12/23 01:31:52;;;;;;;68.22;22.52;;;;;;;8.58;100.00;100311.16;6182297;23;20004;-90
2022/12/23 01:34:18;;;;;;;74.00;22.07;;;;;;;8.58;100.00;100313.03;6182016;23;20021;-89
2022/12/23 01:36:43;;;;;;;76.57;22.65;;;;;;;8.55;100.00;100301.00;6181849;23;20009;-90
2022/12/23 01:39:09;;;;;;;75.73;23.73;;;;;;;8.64;100.00;100314.69;6182364;23;20047;-89
2022/12/23 01:44:49;;;;;;;78.50;24.33;;;;;;;8.66;100.00;100317.09;6182183;23;20024;-89
2022/12/23 01:47:40;;;;;;;83.20;24.70;;;;;;;8.64;100.00;100326.16;6182664;23;20009;-90
2022/12/23 01:50:18;;;;;;;83.47;24.37;;;;;;;8.64;100.00;100328.84;6169415;23;20253;-90
2022/12/23 01:52:54;;;;;;;87.75;26.63;;;;;;;8.66;100.00;100333.13;6181662;23;20001;-90
2022/12/23 01:55:24;;;;;;;81.43;25.00;;;;;;;8.60;100.00;100330.41;6182038;23;20414;-90
2022/12/23 01:57:52;;;;;;;83.57;25.08;;;;;;;8.61;100.00;100334.69;6182093;23;20005;-90
2022/12/23 02:05:47;;;;;;;74.77;24.83;;;;;;;8.64;100.00;100346.75;6182522;23;20063;-90
2022/12/23 02:11:31;;;;;;;85.32;26.15;;;;;;;8.65;100.00;100359.03;6116364;23;20016;-90
2022/12/23 02:17:21;;;;;;;86.60;24.80;;;;;;;8.62;100.00;100360.34;6150658;23;20066;-89
2022/12/23 02:19:49;;;;;;;82.93;25.73;;;;;;;8.64;100.00;100352.88;6181542;23;20001;-89
2022/12/23 02:22:45;;;;;;;87.50;25.60;;;;;;;8.64;100.00;100358.22;6184099;23;20835;-89
2022/12/23 02:25:55;;;;;;;84.50;25.17;;;;;;;8.66;100.00;100352.63;6184030;23;20005;-90
2022/12/23 02:28:51;;;;;;;83.53;24.17;;;;;;;8.64;100.00;100358.22;6161008;23;20009;-89
2022/12/23 02:31:35;;;;;;;74.00;24.38;;;;;;;8.62;100.00;100360.34;6183253;23;20005;-90
2022/12/23 02:34:17;;;;;;;76.78;24.73;;;;;;;8.64;100.00;100378.78;6184389;23;20005;-90
2022/12/23 02:37:01;;;;;;;76.35;23.70;;;;;;;8.59;100.00;100370.75;6184852;23;20382;-90
2022/12/23 02:39:32;;;;;;;79.13;25.40;;;;;;;8.63;100.00;100382.53;6184379;23;20058;-91
2022/12/23 02:42:09;;;;;;;84.03;24.23;;;;;;;8.66;100.00;100397.22;6183442;23;20862;-90
2022/12/23 02:44:47;;;;;;;82.80;24.52;;;;;;;8.66;100.00;100399.91;6183550;23;20005;-90
2022/12/23 02:47:19;;;;;;;80.55;24.58;;;;;;;8.58;100.00;100396.63;6184384;23;20012;-90
2022/12/23 02:49:50;;;;;;;73.43;22.48;;;;;;;8.60;100.00;100407.84;6182560;23;20634;-90
2022/12/23 02:52:19;;;;;;;74.35;23.40;;;;;;;8.62;100.00;100413.75;6184079;23;20005;-90
2022/12/23 02:54:53;;;;;;;74.55;22.98;;;;;;;8.59;100.00;100414.25;6183188;23;20005;-90
2022/12/23 02:57:24;;;;;;;72.43;22.50;;;;;;;8.62;100.00;100421.78;6184222;23;20008;-89
2022/12/23 02:59:50;;;;;;;71.60;21.63;;;;;;;8.60;100.00;100418.53;6182486;23;20815;-90
2022/12/23 03:02:16;;;;;;;71.82;21.80;;;;;;;8.55;100.00;100412.34;6184214;23;20009;-90
2022/12/23 03:04:42;;;;;;;68.53;20.85;;;;;;;8.61;100.00;100414.81;6183391;23;20309;-90
2022/12/23 03:07:32;;;;;;;67.87;20.67;;;;;;;8.62;100.00;100415.63;6157302;23;20520;-90
2022/12/23 03:10:31;;;;;;;73.93;20.38;;;;;;;8.64;100.00;100419.66;6183289;23;20015;-90
2022/12/23 03:12:59;;;;;;;63.70;19.48;;;;;;;8.62;100.00;100421.78;6183978;23;20013;-90
2022/12/23 03:15:50;;;;;;;70.13;19.85;;;;;;;8.62;100.00;100431.66;6183815;23;20093;-90
2022/12/23 03:18:37;;;;;;;65.73;19.40;;;;;;;8.61;100.00;100428.16;6183380;23;20705;-90
2022/12/23 03:21:08;;;;;;;74.30;19.50;;;;;;;8.61;100.00;100425.50;6182992;23;20290;-89
2022/12/23 03:23:41;;;;;;;70.97;19.83;;;;;;;8.52;100.00;100411.00;6183593;23;20333;-89
2022/12/23 03:26:20;;;;;;;70.63;18.00;;;;;;;8.60;100.00;100423.09;6183802;23;20096;-90
2022/12/23 03:28:55;;;;;;;71.35;18.40;;;;;;;8.57;100.00;100415.59;6183866;23;20009;-90
2022/12/23 03:31:27;;;;;;;70.05;18.70;;;;;;;8.59;100.00;100416.13;6182695;23;20524;-90
2022/12/23 03:33:59;;;;;;;66.70;18.52;;;;;;;8.60;100.00;100418.53;6183099;23;20032;-90
2022/12/23 03:36:30;;;;;;;72.03;18.70;;;;;;;8.53;100.00;100403.78;6183749;23;20009;-89
2022/12/23 03:38:56;;;;;;;71.80;19.87;;;;;;;8.59;100.00;100403.56;6180981;23;20240;-90
2022/12/23 03:41:29;;;;;;;64.13;19.02;;;;;;;8.57;100.00;100415.59;6182931;23;20001;-89
2022/12/23 03:44:02;;;;;;;73.90;19.27;;;;;;;8.59;100.00;100419.59;6183781;23;20005;-90
2022/12/23 03:46:51;;;;;;;77.75;19.45;;;;;;;8.58;100.00;100423.31;6183862;23;20032;-90
2022/12/23 03:49:27;;;;;;;75.10;19.27;;;;;;;8.52;100.00;100403.00;6183224;23;20433;-90
2022/12/23 03:52:02;;;;;;;73.63;18.30;;;;;;;8.58;100.00;100412.66;6183208;23;20701;-90
2022/12/23 03:54:39;;;;;;;69.63;19.55;;;;;;;8.55;100.00;100410.50;6183965;23;20060;-90
2022/12/23 03:57:07;;;;;;;62.33;17.70;;;;;;;8.59;100.00;100421.47;6185364;23;20005;-90
2022/12/23 03:59:39;;;;;;;71.05;18.10;;;;;;;8.54;100.00;100419.56;6193211;23;20036;-90
2022/12/23 04:02:26;;;;;;;65.82;18.48;;;;;;;8.57;100.00;100421.75;6196891;23;20009;-90
2022/12/23 04:05:22;;;;;;;67.10;18.70;;;;;;;8.56;100.00;100419.31;6197941;23;19997;-90
2022/12/23 04:08:04;;;;;;;76.70;18.70;;;;;;;8.55;100.00;100428.38;6199942;23;20270;-90
2022/12/23 04:10:29;;;;;;;80.43;19.35;;;;;;;8.53;100.00;100431.31;6199593;23;20005;-90
2022/12/23 04:12:55;;;;;;;75.32;18.92;;;;;;;8.54;100.00;100440.13;6199560;23;20001;-89
2022/12/23 04:15:22;;;;;;;76.27;19.53;;;;;;;8.54;100.00;100437.44;6195453;23;20004;-90
2022/12/23 04:17:49;;;;;;;76.65;19.73;;;;;;;8.53;100.00;100436.66;6185726;23;20048;-90
2022/12/23 04:20:15;;;;;;;78.72;21.27;;;;;;;8.47;100.00;100433.13;6184719;23;20008;-90
2022/12/23 04:22:42;;;;;;;86.00;20.77;;;;;;;8.41;100.00;100425.28;6184896;23;20314;-90
2022/12/23 04:25:09;;;;;;;81.33;20.77;;;;;;;8.51;100.00;100449.47;6183514;23;20009;-89
2022/12/23 04:27:36;;;;;;;81.47;20.73;;;;;;;8.52;100.00;100456.41;6182632;23;20031;-88
2022/12/23 04:30:03;;;;;;;84.82;20.95;;;;;;;8.51;100.00;100462.81;6182578;23;20013;-89
2022/12/23 04:32:28;;;;;;;90.50;22.80;;;;;;;8.51;100.00;100462.81;6182399;23;20088;-88
2022/12/23 04:34:53;;;;;;;88.07;21.83;;;;;;;8.43;100.00;100464.03;6182703;23;20063;-89
2022/12/23 04:37:19;;;;;;;82.70;20.03;;;;;;;8.49;100.00;100467.59;6183176;23;20005;-89
2022/12/23 04:39:44;;;;;;;91.17;21.87;;;;;;;8.49;100.00;100468.38;6181999;23;20009;-89
2022/12/23 04:42:09;;;;;;;83.47;20.67;;;;;;;8.47;100.00;100461.66;6182638;23;20013;-89
2022/12/23 04:44:34;;;;;;;74.27;19.87;;;;;;;8.44;100.00;100462.16;6182278;23;20044;-89
2022/12/23 04:47:00;;;;;;;75.13;19.23;;;;;;;8.44;100.00;100457.66;6182997;23;20256;-89
2022/12/23 04:49:25;;;;;;;83.77;19.53;;;;;;;8.47;100.00;100456.31;6182827;23;20001;-89
2022/12/23 04:51:50;;;;;;;83.93;20.27;;;;;;;8.39;100.00;100438.09;6181616;23;20005;-89
2022/12/23 04:54:16;;;;;;;79.63;19.60;;;;;;;8.42;100.00;100437.56;6182911;23;20001;-88
2022/12/23 04:56:41;;;;;;;86.20;20.37;;;;;;;8.43;100.00;100442.69;6181726;23;20048;-89
2022/12/23 04:59:06;;;;;;;80.33;20.40;;;;;;;8.42;100.00;100440.25;6183159;23;20016;-90
2022/12/23 05:01:32;;;;;;;92.60;22.02;;;;;;;8.38;100.00;100428.47;6181331;23;20055;-90
2022/12/23 05:03:57;;;;;;;88.90;21.23;;;;;;;8.37;100.00;100426.88;6182957;23;20009;-90
2022/12/23 05:06:22;;;;;;;79.40;19.97;;;;;;;8.32;100.00;100425.75;6182534;23;20144;-89
2022/12/23 05:08:48;;;;;;;87.87;22.10;;;;;;;8.32;100.00;100428.44;6182499;23;20085;-89
2022/12/23 05:11:13;;;;;;;77.30;20.37;;;;;;;8.38;100.00;100433.81;6181617;23;20088;-88
2022/12/23 05:13:38;;;;;;;72.43;19.17;;;;;;;8.37;100.00;100437.53;6182271;23;20382;-89
2022/12/23 05:16:04;;;;;;;72.85;20.00;;;;;;;8.36;100.00;100430.59;6181831;23;20452;-87
2022/12/23 05:18:29;;;;;;;76.37;19.10;;;;;;;8.36;100.00;100449.28;6181791;23;20009;-86
2022/12/23 05:20:55;;;;;;;66.43;18.50;;;;;;;8.37;100.00;100449.03;6182032;23;20048;-86
2022/12/23 05:23:20;;;;;;;73.27;18.20;;;;;;;8.36;100.00;100457.28;6182027;23;20321;-88
2022/12/23 05:25:51;;;;;;;64.32;17.35;;;;;;;8.27;100.00;100455.06;6182365;23;20337;-88
2022/12/23 05:28:17;;;;;;;71.20;16.60;;;;;;;8.33;100.00;100474.59;6181838;23;20076;-87
2022/12/23 05:30:42;;;;;;;73.43;17.23;;;;;;;8.30;100.00;100475.13;6180463;23;20445;-87
2022/12/23 05:33:08;;;;;;;61.43;17.23;;;;;;;8.37;100.00;100482.94;6172803;23;20017;-87
2022/12/23 05:35:33;;;;;;;74.05;17.85;;;;;;;8.37;100.00;100493.63;6171652;23;20532;-87
2022/12/23 05:38:01;;;;;;;74.77;17.80;;;;;;;8.35;100.00;100483.16;6171277;23;20066;-88
2022/12/23 05:40:26;;;;;;;67.22;16.60;;;;;;;8.34;100.00;100490.38;6176457;23;20057;-88
2022/12/23 05:42:51;;;;;;;75.70;17.93;;;;;;;8.34;100.00;100498.41;6182042;23;20083;-88
2022/12/23 05:45:17;;;;;;;75.00;17.47;;;;;;;8.33;100.00;100501.28;6176860;23;20334;-88
2022/12/23 05:47:45;;;;;;;67.97;17.90;;;;;;;8.36;100.00;100502.69;6171173;23;20064;-89
2022/12/23 05:50:11;;;;;;;70.22;19.30;;;;;;;8.38;100.00;100503.25;6173300;23;20087;-88
2022/12/23 05:52:36;;;;;;;80.15;18.67;;;;;;;8.35;100.00;100483.16;6177589;23;20078;-88
2022/12/23 05:55:02;;;;;;;75.27;19.00;;;;;;;8.39;100.00;100499.50;6181630;23;20005;-88
2022/12/23 05:57:27;;;;;;;86.53;19.70;;;;;;;8.34;100.00;100481.56;6181451;23;20020;-88
2022/12/23 05:59:52;;;;;;;75.93;18.60;;;;;;;8.37;100.00;100473.06;6181066;23;20009;-88
2022/12/23 06:02:20;;;;;;;90.67;20.13;;;;;;;8.33;100.00;100472.75;6182357;23;20244;-88
2022/12/23 06:04:46;;;;;;;79.30;20.95;;;;;;;8.35;100.00;100467.16;6181431;23;20009;-88
2022/12/23 06:07:11;;;;;;;81.23;20.30;;;;;;;8.40;100.00;100474.44;6155767;23;20005;-88
2022/12/23 06:09:37;;;;;;;85.90;20.27;;;;;;;8.36;100.00;100468.75;6180871;23;20001;-90
2022/12/23 06:12:05;;;;;;;80.57;20.05;;;;;;;8.39;100.00;100459.47;6179463;23;20016;-91
2022/12/23 06:14:30;;;;;;;77.40;20.23;;;;;;;8.39;100.00;100454.13;6156969;23;20060;-90
2022/12/23 06:16:55;;;;;;;84.28;20.90;;;;;;;8.29;100.00;100442.28;6183559;23;20009;-91
2022/12/23 06:19:20;;;;;;;87.90;20.67;;;;;;;8.39;100.00;100456.78;6182477;23;20009;-90
2022/12/23 06:21:46;;;;;;;93.13;21.57;;;;;;;8.37;100.00;100449.03;6180833;23;20009;-89
2022/12/23 06:24:11;;;;;;;90.30;22.17;;;;;;;8.37;100.00;100443.69;6182423;23;20005;-87
2022/12/23 06:26:36;;;;;;;89.60;22.20;;;;;;;8.33;100.00;100440.72;6176722;23;20433;-89
2022/12/23 06:29:02;;;;;;;89.90;21.77;;;;;;;8.38;100.00;100450.63;6170750;23;20013;-90
2022/12/23 06:31:28;;;;;;;91.47;22.77;;;;;;;8.36;100.00;100442.06;6168782;23;20009;-90
2022/12/23 06:33:53;;;;;;;97.50;23.40;;;;;;;8.39;100.00;100454.13;6170936;23;20015;-88
2022/12/23 06:36:18;;;;;;;95.53;24.63;;;;;;;8.39;100.00;100464.81;6169146;23;20012;-92
2022/12/23 06:38:44;;;;;;;96.82;24.33;;;;;;;8.38;100.00;100465.84;6170527;23;20090;-89
2022/12/23 06:41:09;;;;;;;108.83;24.73;;;;;;;8.37;100.00;100470.38;6166771;23;20092;-89
2022/12/23 06:43:34;;;;;;;103.77;24.17;;;;;;;8.37;100.00;100458.91;6168069;23;20063;-90
2022/12/23 06:46:00;;;;;;;102.90;26.10;;;;;;;8.38;100.00;100468.53;6169517;23;20091;-90
2022/12/23 06:48:27;;;;;;;115.00;25.70;;;;;;;8.37;100.00;100467.72;6167618;23;20012;-88
2022/12/23 06:50:53;;;;;;;107.03;25.77;;;;;;;8.36;100.00;100473.31;6166642;23;20009;-91
2022/12/23 06:53:18;;;;;;;101.73;26.07;;;;;;;8.34;100.00;100477.03;6172133;23;20071;-89
2022/12/23 06:55:43;;;;;;;105.13;26.33;;;;;;;8.27;100.00;100484.41;6166334;23;20008;-89
2022/12/23 06:58:08;;;;;;;103.63;26.03;;;;;;;8.28;100.00;100486.03;6169349;23;20012;-91
2022/12/23 07:00:34;;;;;;;105.53;26.73;;;;;;;8.28;100.00;100503.94;6168589;23;20236;-89
2022/12/23 07:03:00;;;;;;;101.50;25.73;;;;;;;8.24;100.00;100508.94;6168087;23;20009;-90
2022/12/23 07:05:25;;;;;;;107.00;25.73;;;;;;;8.26;100.00;100522.06;6167198;23;20020;-89
2022/12/23 07:07:50;;;;;;;107.47;25.67;;;;;;;8.24;100.00;100535.63;6169300;23;20009;-90
2022/12/23 07:10:16;;;;;;;119.37;27.07;;;;;;;8.25;100.00;100541.78;6170092;23;20001;-90
2022/12/23 07:12:41;;;;;;;119.97;28.38;;;;;;;8.26;100.00;100546.88;6170765;23;20040;-89
2022/12/23 07:15:08;;;;;;;114.40;27.40;;;;;;;8.28;100.00;100536.75;6177440;23;20668;-89
2022/12/23 07:17:33;;;;;;;107.93;27.70;;;;;;;8.26;100.00;100533.53;6180958;23;20012;-90
2022/12/23 07:19:59;;;;;;;121.80;28.00;;;;;;;8.24;100.00;100513.50;6180882;23;20047;-90
2022/12/23 07:22:24;;;;;;;123.60;28.17;;;;;;;8.29;100.00;100510.88;6182722;23;20064;-89
2022/12/23 07:24:49;;;;;;;128.87;29.20;;;;;;;8.24;100.00;100508.16;6182623;23;20021;-89
2022/12/23 07:27:15;;;;;;;145.73;30.75;;;;;;;8.24;100.00;100503.59;6183285;23;20359;-92
2022/12/23 07:29:40;;;;;;;130.70;29.83;;;;;;;8.27;100.00;100513.78;6181650;23;20024;-91
2022/12/23 07:32:05;;;;;;;154.60;30.80;;;;;;;8.30;100.00;100509.84;6181777;23;20001;-92
2022/12/23 07:34:31;;;;;;;137.10;30.27;;;;;;;8.28;100.00;100514.59;6183797;23;20652;-90
2022/12/23 07:36:56;;;;;;;135.67;30.43;;;;;;;8.30;100.00;100513.28;6183698;23;20029;-90
2022/12/23 07:39:21;;;;;;;131.83;29.83;;;;;;;8.27;100.00;100500.44;6182408;23;20091;-91
2022/12/23 07:41:47;;;;;;;132.63;28.67;;;;;;;8.28;100.00;100496.72;6180682;23;20005;-92
2022/12/23 07:44:12;;;;;;;126.67;29.10;;;;;;;8.25;100.00;100497.22;6185737;23;20027;-92
2022/12/23 07:46:38;;;;;;;139.80;29.57;;;;;;;8.26;100.00;100506.84;6186433;23;20059;-92
2022/12/23 07:49:04;;;;;;;137.20;29.08;;;;;;;8.25;100.00;100491.88;6187968;23;20001;-92
2022/12/23 07:54:46;;;;;;;139.02;29.30;;;;;;;8.26;100.00;100504.16;6094128;23;20018;-92
2022/12/23 08:00:42;;;;;;;139.77;28.80;;;;;;;8.14;100.00;100482.16;6082417;23;20022;-92
2022/12/23 08:03:10;;;;;;;138.53;27.57;;;;;;;8.10;100.00;100484.53;6125119;23;20012;-91
2022/12/23 08:05:35;;;;;;;120.88;27.13;;;;;;;8.13;100.00;100497.34;6182605;23;20637;-91
2022/12/23 08:08:01;;;;;;;136.10;27.57;;;;;;;8.13;100.00;100485.88;6183087;23;20029;-91
2022/12/23 08:10:26;;;;;;;130.87;27.47;;;;;;;8.19;100.00;100487.56;6181922;23;20001;-91
2022/12/23 08:12:52;;;;;;;133.95;26.77;;;;;;;8.16;100.00;100480.03;6181261;23;20009;-92
2022/12/23 08:15:17;;;;;;;121.10;25.97;;;;;;;8.14;100.00;100474.13;6182838;23;20012;-92
2022/12/23 08:17:43;;;;;;;116.15;26.02;;;;;;;8.15;100.00;100489.91;6182837;23;20001;-92
2022/12/23 08:20:08;;;;;;;122.50;25.60;;;;;;;8.10;100.00;100475.69;6182784;23;20005;-92
2022/12/23 08:22:34;;;;;;;105.83;24.30;;;;;;;8.17;100.00;100479.00;6187117;23;20008;-92
2022/12/23 08:24:59;;;;;;;111.68;24.45;;;;;;;8.17;100.00;100497.66;6184181;23;20012;-93
2022/12/23 08:30:10;;;;;;;118.90;25.33;;;;;;;8.13;100.00;100485.88;6181013;22;20159;-92
2022/12/23 08:32:35;;;;;;;112.90;23.43;;;;;;;8.10;100.00;100479.19;6183020;23;20421;-92
2022/12/23 08:35:00;;;;;;;108.20;24.50;;;;;;;8.18;100.00;100483.28;6183397;23;20009;-93
2022/12/23 08:37:26;;;;;;;102.30;23.27;;;;;;;8.13;100.00;100484.00;6183429;23;20384;-93
2022/12/23 08:39:52;;;;;;;106.87;22.83;;;;;;;8.16;100.00;100488.84;6182208;23;20013;-92
2022/12/23 08:42:18;;;;;;;98.80;21.73;;;;;;;8.14;100.00;100482.16;6182927;23;20249;-92
2022/12/23 08:44:43;;;;;;;108.07;22.23;;;;;;;8.18;100.00;100475.25;6182847;23;20013;-92
2022/12/23 08:47:08;;;;;;;96.57;21.17;;;;;;;8.20;100.00;100475.81;6183132;23;20009;-91
2022/12/23 08:49:34;;;;;;;94.60;21.70;;;;;;;8.21;100.00;100469.44;6182494;23;20079;-92
2022/12/23 08:51:59;;;;;;;97.57;21.27;;;;;;;8.19;100.00;100460.88;6183024;23;20620;-93
2022/12/23 08:54:24;;;;;;;88.10;20.60;;;;;;;8.20;100.00;100451.81;6183616;23;20005;-92
2022/12/23 08:56:50;;;;;;;95.47;21.17;;;;;;;8.15;100.00;100451.75;6182387;23;20012;-92
2022/12/23 08:59:16;;;;;;;97.80;21.77;;;;;;;8.18;100.00;100451.25;6182326;23;20320;-92
2022/12/23 09:01:41;;;;;;;96.00;20.75;;;;;;;8.20;100.00;100454.47;6184038;22;20023;-92
2022/12/23 09:04:07;;;;;;;82.17;18.97;;;;;;;8.11;100.00;100443.44;6183621;23;20631;-92
2022/12/23 09:06:36;;;;;;;86.73;19.27;;;;;;;8.18;100.00;100457.38;6156905;23;20016;-92
2022/12/23 09:09:03;;;;;;;77.72;19.65;;;;;;;8.15;100.00;100455.19;6182705;23;20055;-92
2022/12/23 09:11:28;;;;;;;83.47;20.30;;;;;;;8.14;100.00;100434.09;6181688;23;20005;-92
2022/12/23 09:13:56;;;;;;;79.32;18.73;;;;;;;8.16;100.00;100437.34;6183370;23;20008;-91
2022/12/23 09:16:22;;;;;;;74.88;20.20;;;;;;;8.11;100.00;100423.94;6182724;23;20020;-92
2022/12/23 09:18:47;;;;;;;76.87;17.57;;;;;;;8.12;100.00;100414.88;6182869;23;20005;-93
2022/12/23 09:27:22;;;;;;;61.83;17.50;;;;;;;8.09;100.00;100405.50;6182946;23;20108;-93
2022/12/23 09:29:47;;;;;;;60.83;16.57;;;;;;;8.14;100.00;100407.41;6181188;23;20033;-94
2022/12/23 09:32:13;;;;;;;65.87;17.27;;;;;;;8.06;100.00;100402.53;6182893;23;20132;-93
2022/12/23 09:34:38;;;;;;;72.40;16.70;;;;;;;8.09;100.00;100399.34;6182441;23;20056;-91
2022/12/23 09:37:03;;;;;;;67.83;16.70;;;;;;;8.15;100.00;100406.38;6183153;23;20012;-92
2022/12/23 09:39:29;;;;;;;70.87;18.13;;;;;;;8.15;100.00;100404.50;6182014;23;20373;-91
2022/12/23 09:42:47;;;;;;;62.33;16.30;;;;;;;8.17;100.00;100409.59;6184930;23;20009;-96
2022/12/23 09:45:50;;;;;;;62.33;15.63;;;;;;;8.16;100.00;100392.75;6152411;23;20025;-96
2022/12/23 09:49:03;;;;;;;;;;;;;;;;;;;;;
2022/12/23 09:57:57;;;;;;;55.53;15.13;;;;;;;8.09;100.00;100356.66;6202505;23;20016;-96
2022/12/23 10:00:37;;;;;;;57.65;17.48;;;;;;;8.16;100.00;100371.41;6195401;23;20032;-95
2022/12/23 10:03:17;;;;;;;56.60;17.75;;;;;;;8.11;100.00;100367.88;6195540;23;20016;-96
2022/12/23 10:05:45;;;;;;;48.67;16.05;;;;;;;8.29;100.00;100399.56;6208476;23;20029;-96
2022/12/23 10:08:47;;;;;;;52.45;14.27;;;;;;;8.18;100.00;100371.16;6206698;23;20001;-96
2022/12/23 10:11:23;;;;;;;46.70;13.40;;;;;;;8.38;100.00;100405.25;6201635;23;20012;-96
2022/12/23 10:14:28;;;;;;;55.42;17.58;;;;;;;8.22;100.00;100363.47;6203270;23;20080;-95
2022/12/23 10:17:07;;;;;;;;;;;;;;;;;;;;;
2022/12/23 10:19:40;;;;;;;54.67;16.35;;;;;;;8.31;100.00;100357.41;6182061;23;20080;-90
2022/12/23 10:22:33;;;;;;;42.72;14.43;;;;;;;8.25;100.00;100349.59;6182031;23;20001;-90
2022/12/23 10:25:02;;;;;;;48.78;14.73;;;;;;;8.30;100.00;100347.00;6183024;23;20005;-92
2022/12/23 10:27:37;;;;;;;51.33;17.03;;;;;;;8.31;100.00;100351.25;6182182;23;20013;-89
2022/12/23 10:30:20;;;;;;;48.70;15.00;;;;;;;8.33;100.00;100336.59;6181318;22;20009;-90
2022/12/23 10:32:51;;;;;;;43.63;15.68;;;;;;;8.40;100.00;100328.38;6182263;23;20060;-90
2022/12/23 10:35:40;;;;;;;58.30;17.25;;;;;;;8.44;100.00;100339.34;6181984;23;20005;-92
2022/12/23 10:38:32;;;;;;;51.92;16.52;;;;;;;8.50;100.00;100330.34;6181498;23;20558;-93
2022/12/23 10:41:30;;;;;;;44.22;14.43;;;;;;;8.52;100.00;100319.41;6182524;23;20327;-95
2022/12/23 10:44:16;;;;;;;39.03;16.27;;;;;;;8.58;100.00;100324.50;6185078;23;20005;-91
2022/12/23 10:47:14;;;;;;;40.53;15.73;;;;;;;8.64;100.00;100318.16;6193229;23;20009;-94
2022/12/23 10:49:49;;;;;;;51.67;19.45;;;;;;;8.68;100.00;100309.63;6163953;23;20004;-93
2022/12/23 10:52:20;;;;;;;38.55;15.27;;;;;;;8.70;100.00;100302.16;6189302;23;20005;-91
2022/12/23 10:54:46;;;;;;;35.00;13.18;;;;;;;8.72;100.00;100294.72;6185044;23;20322;-93
2022/12/23 10:57:14;;;;;;;36.77;13.07;;;;;;;8.68;100.00;100294.41;6184596;23;20009;-93
2022/12/23 10:59:39;;;;;;;33.87;12.43;;;;;;;8.68;100.00;100290.94;6181412;23;20233;-93
2022/12/23 11:02:11;;;;;;;32.42;11.48;;;;;;;8.60;100.00;100281.53;6184480;23;20011;-93
2022/12/23 11:04:41;;;;;;;36.60;14.23;;;;;;;8.48;100.00;100268.38;6187356;23;20580;-93
2022/12/23 11:07:13;;;;;;;37.57;15.27;;;;;;;8.49;100.00;100270.00;6188556;23;20244;-93
2022/12/23 11:10:02;;;;;;;31.65;13.10;;;;;;;8.48;100.00;100255.03;6187442;23;20084;-92
2022/12/23 11:12:41;;;;;;;38.38;15.57;;;;;;;8.50;100.00;100250.25;6188176;23;20016;-96
2022/12/23 11:15:32;;;;;;;34.17;13.20;;;;;;;8.52;100.00;100245.44;6187866;23;20002;-94
2022/12/23 11:18:05;;;;;;;35.22;13.90;;;;;;;8.51;100.00;100246.50;6186168;23;20005;-92
2022/12/23 11:20:32;;;;;;;34.60;13.43;;;;;;;8.53;100.00;100238.22;6186817;23;20001;-92
2022/12/23 11:23:01;;;;;;;36.87;15.17;;;;;;;8.50;100.00;100236.88;6187042;23;20252;-93
2022/12/23 11:25:42;;;;;;;112.93;38.00;;;;;;;8.42;100.00;100243.50;6184577;23;20059;-90
2022/12/23 11:28:15;;;;;;;77.15;26.88;;;;;;;8.38;100.00;100242.38;6185310;23;20127;-92
2022/12/23 11:30:49;;;;;;;89.25;31.48;;;;;;;8.33;100.00;100237.00;6183756;23;20008;-92
2022/12/23 11:33:45;;;;;;;74.85;29.15;;;;;;;8.27;100.00;100227.38;6184171;23;20016;-92
2022/12/23 11:36:23;;;;;;;45.95;15.48;;;;;;;8.26;100.00;100217.75;6174984;23;20008;-91
2022/12/23 11:39:19;;;;;;;54.43;20.83;;;;;;;8.22;100.00;100212.09;6184879;23;20059;-93
2022/12/23 11:41:51;;;;;;;49.97;20.67;;;;;;;8.22;100.00;100211.31;6168675;23;20008;-95
2022/12/23 11:44:36;;;;;;;34.63;13.15;;;;;;;8.21;100.00;100199.84;6188527;23;20029;-94
2022/12/23 11:47:19;;;;;;;37.13;11.60;;;;;;;8.23;100.00;100191.56;6188357;23;20009;-94
2022/12/23 11:49:48;;;;;;;35.10;10.75;;;;;;;8.24;100.00;100191.31;6193757;23;20052;-96
2022/12/23 11:52:17;;;;;;;22.53;9.83;;;;;;;8.23;100.00;100186.25;6197148;23;20043;-96
2022/12/23 11:54:50;;;;;;;33.57;9.87;;;;;;;8.21;100.00;100173.16;6195269;23;20594;-96
2022/12/23 11:57:20;;;;;;;28.92;8.95;;;;;;;8.19;100.00;100175.28;6187773;23;20092;-96
2022/12/23 11:59:48;;;;;;;28.67;8.65;;;;;;;8.17;100.00;100169.41;6187370;23;20445;-93
2022/12/23 12:02:34;;;;;;;30.08;9.68;;;;;;;8.13;100.00;100146.94;6184372;23;20009;-95
2022/12/23 12:05:03;;;;;;;24.58;8.15;;;;;;;8.14;100.00;100145.88;6188672;23;20056;-96
2022/12/23 12:07:30;;;;;;;26.23;9.80;;;;;;;8.12;100.00;100142.66;6195158;23;20011;-95
2022/12/23 12:09:59;;;;;;;25.63;9.13;;;;;;;8.12;100.00;100130.13;6185299;23;20463;-95
2022/12/23 12:12:26;;;;;;;26.87;8.43;;;;;;;8.10;100.00;100113.59;6183483;23;20260;-95
2022/12/23 12:14:55;;;;;;;27.17;8.75;;;;;;;8.15;100.00;100100.25;6183535;23;20005;-96
2022/12/23 12:17:32;;;;;;;31.02;9.40;;;;;;;8.12;100.00;100086.63;6183903;23;20045;-95
2022/12/23 12:20:22;;;;;;;26.73;8.75;;;;;;;8.15;100.00;100078.91;6183246;23;20005;-95
2022/12/23 12:22:56;;;;;;;26.50;8.70;;;;;;;8.17;100.00;100076.78;6184206;23;20012;-96
2022/12/23 12:25:43;;;;;;;32.33;9.75;;;;;;;8.23;100.00;100061.59;6183583;23;20055;-96